Flight Track Log - Related Links

Times and Time Zones

All times are in EDT time to prevent confusion due to time zone crossing. See the WAV757 flight status page for this flight to view local times or setup timezone preferences in your user account.

Time Position Orientation Groundspeed Altitude Reporting Facility
EDT Latitude Longitude Course Direction KTS MPH feet Rate Location/Type
Sat 01:48:52 PM 65.1333 -151.7833 90° East 150 173 3,600  Level Anchorage Center
Sat 01:49:52 PM 65.1333 -151.6833 90° East 170 196 4,600 992 Climbing Anchorage Center
Sat 01:50:53 PM 65.1167 -151.5667 109° East 170 196 5,600 992 Climbing Anchorage Center
Sat 01:51:53 PM 65.1000 -151.4667 112° Southeast 170 196 6,600 700 Climbing Anchorage Center
Sat 01:52:53 PM 65.1000 -151.3333 90° East 190 219 7,000 198 Climbing Anchorage Center
Sat 01:53:54 PM 65.1000 -151.2000 90° East 200 230 7,000  Level Anchorage Center
Sat 01:54:54 PM 65.1000 -151.0667 90° East 190 219 7,000  Level Anchorage Center
Sat 01:55:54 PM 65.1000 -150.9500 90° East 200 230 7,000  Level Anchorage Center
Sat 01:56:55 PM 65.1000 -150.8167 90° East 190 219 7,000  Level Anchorage Center
Sat 01:57:55 PM 65.1000 -150.6833 90° East 200 230 7,000  Level Anchorage Center
Sat 01:58:55 PM 65.1000 -150.5667 90° East 190 219 7,000  Level Anchorage Center
Sat 01:59:56 PM 65.1000 -150.4333 90° East 190 219 7,000  Level Anchorage Center
Sat 02:00:56 PM 65.1000 -150.3167 90° East 190 219 7,000  Level Anchorage Center
Sat 02:01:56 PM 65.1167 -150.1833 73° East 190 219 7,000  Level Anchorage Center
Sat 02:02:57 PM 65.1000 -150.0500 106° East 190 219 7,000  Level Anchorage Center
Sat 02:03:57 PM 65.1000 -149.9333 90° East 200 230 7,000  Level Anchorage Center
Sat 02:04:57 PM 65.1000 -149.8000 90° East 190 219 7,000  Level Anchorage Center
Sat 02:05:58 PM 65.1000 -149.6667 90° East 200 230 7,000  Level Anchorage Center
Sat 02:06:58 PM 65.1000 -149.5500 90° East 190 219 7,000  Level Anchorage Center
Sat 02:07:59 PM 65.1167 -149.4167 73° East 190 219 7,000  Level Anchorage Center
Sat 02:08:59 PM 65.1167 -149.2833 90° East 200 230 7,000  Level Anchorage Center
Sat 02:10:00 PM 65.1138 -149.1703 93° East  Level FlightAware Approximate
Sat 02:17:00 PM 65.1004 -148.3921 90° East  Level FlightAware Approximate
Sat 02:18:00 PM 65.1005 -148.2809 90° East  Level FlightAware Approximate
Sat 02:19:00 PM 65.1004 -148.1696 90° East  Level FlightAware Approximate
Sat 02:20:00 PM 65.1003 -148.0583 90° East  Level FlightAware Approximate
Sat 02:21:00 PM 65.1001 -147.9470 90° East  Level FlightAware Approximate
Sat 02:22:00 PM 65.0963 -147.8363 98° East  Level FlightAware Approximate
Sat 02:23:00 PM 65.0898 -147.7261 98° East  Level FlightAware Approximate
Sat 02:24:00 PM 65.0831 -147.6169 198° South  Level FlightAware Approximate
Sat 02:25:00 PM 65.0386 -147.6521 198° South  Level FlightAware Approximate
Sat 02:26:00 PM 64.9941 -147.6871 198° South  Level FlightAware Approximate
Sat 02:27:00 PM 64.9497 -147.7221 198° South  Level FlightAware Approximate
Sat 02:28:00 PM 64.9052 -147.7569 198° South  Level FlightAware Approximate
Sat 02:29:00 PM 64.8607 -147.7916 198° South  Level FlightAware Approximate
Sat 02:30:00 PM 64.8173 -147.8327 203° Southwest  Level FlightAware Approximate
Sat 02:31:00 PM 64.8151 -147.8564 203° Southwest  Level Estimated
Sat 02:32:00 PM 64.8151 -147.8564 203° Southwest  Level Estimated
Sat 02:33:00 PM 64.8151 -147.8564 203° Southwest  Level Estimated
Sat 02:34:00 PM 64.8151 -147.8564 203° Southwest  Level Estimated
Sat 02:35:00 PM 64.8151 -147.8564 203° Southwest  Level Estimated
Sat 02:36:00 PM 64.8151 -147.8564 203° Southwest  Level Estimated
Sat 02:37:00 PM 64.8151 -147.8564 203° Southwest  Level Estimated
Sat 02:38:00 PM 64.8151 -147.8564 203° Southwest  Level Estimated
Sat 02:39:00 PM 64.8151 -147.8564 203° Southwest  Level Estimated
Sat 02:40:00 PM 64.8151 -147.8564 203° Southwest  Level Estimated
Sat 02:41:00 PM 64.8151 -147.8564 203° Southwest  Level Estimated
Sat 02:42:00 PM 64.8151 -147.8564 203° Southwest  Level Estimated
Sat 02:43:00 PM 64.8151 -147.8564 203° Southwest  Level Estimated
Sat 02:44:00 PM 64.8151 -147.8564 203° Southwest  Level Estimated
Sat 02:45:00 PM 64.8151 -147.8564 203° Southwest  Level Estimated
Sat 02:46:00 PM 64.8151 -147.8564 203° Southwest  Level Estimated

Login

Don't have an account? Register now (free) for customized features, flight alerts, and more!